Time;durP1;ratioP1;P1;durP2;ratioP2;P2;SDS_P1;SDS_P2;PMS_P1;PMS_P2;Temp;Humidity;BMP_temperature;BMP_pressure;BME280_temperature;BME280_humidity;BME280_pressure;Samples;Min_cycle;Max_cycle;Signal;HPM_P1;HPM_P2
2021/04/02 00:01:05;;;;;;;15.77;4.03;;;5.00;99.90;;;;;;4915558;29;20211;-79
2021/04/02 00:03:50;;;;;;;14.03;3.80;;;5.00;99.90;;;;;;4915240;29;20260;-77
2021/04/02 00:06:35;;;;;;;9.73;3.60;;;4.90;99.90;;;;;;4914740;29;20282;-78
2021/04/02 00:09:20;;;;;;;8.60;3.87;;;4.80;99.90;;;;;;4914659;29;20270;-78
2021/04/02 00:12:06;;;;;;;13.33;4.30;;;4.80;99.90;;;;;;4910075;29;20211;-78
2021/04/02 00:14:51;;;;;;;10.37;4.03;;;4.80;99.90;;;;;;4913932;29;20252;-78
2021/04/02 00:17:36;;;;;;;15.17;4.67;;;4.70;99.90;;;;;;4915203;29;20218;-78
2021/04/02 00:20:21;;;;;;;11.33;4.10;;;4.70;99.90;;;;;;4908623;29;20215;-78
2021/04/02 00:23:07;;;;;;;11.20;4.03;;;4.70;99.90;;;;;;4912593;29;20204;-78
2021/04/02 00:25:54;;;;;;;8.03;3.83;;;4.60;99.90;;;;;;4914344;29;20266;-77
2021/04/02 00:28:39;;;;;;;16.90;4.40;;;4.60;99.90;;;;;;4914626;29;20733;-78
2021/04/02 00:31:24;;;;;;;11.57;3.70;;;4.60;99.90;;;;;;4912790;29;20346;-79
2021/04/02 00:34:09;;;;;;;13.53;5.07;;;4.60;99.90;;;;;;4915489;29;20300;-77
2021/04/02 00:36:54;;;;;;;15.10;4.43;;;4.60;99.90;;;;;;4913453;29;20203;-77
2021/04/02 00:39:39;;;;;;;13.67;4.63;;;4.50;99.90;;;;;;4914522;29;20343;-77
2021/04/02 00:42:25;;;;;;;12.80;5.00;;;4.80;99.90;;;;;;4914629;29;20242;-78
2021/04/02 00:45:12;;;;;;;12.73;5.27;;;4.50;99.90;;;;;;4912727;29;20222;-78
2021/04/02 00:47:58;;;;;;;13.17;4.50;;;4.50;99.90;;;;;;4914099;29;20213;-78
2021/04/02 00:50:47;;;;;;;13.70;4.87;;;4.40;99.90;;;;;;4913254;29;20212;-78
2021/04/02 00:53:33;;;;;;;11.17;4.23;;;4.40;99.90;;;;;;4914664;29;20320;-78
2021/04/02 00:56:19;;;;;;;14.33;5.40;;;4.50;99.90;;;;;;4913835;29;20200;-78
2021/04/02 00:59:06;;;;;;;13.37;4.40;;;4.40;99.90;;;;;;4913627;29;20230;-78
2021/04/02 01:01:51;;;;;;;15.17;4.63;;;4.40;99.90;;;;;;4914717;29;20686;-77
2021/04/02 01:04:36;;;;;;;15.73;5.67;;;4.40;99.90;;;;;;4905301;29;20654;-77
2021/04/02 01:07:24;;;;;;;14.33;4.67;;;4.40;99.90;;;;;;4917448;29;20304;-80
2021/04/02 01:10:14;;;;;;;15.20;4.80;;;4.40;99.90;;;;;;4908163;29;20227;-77
2021/04/02 01:13:00;;;;;;;15.57;4.43;;;4.30;99.90;;;;;;4918074;29;20688;-76
2021/04/02 01:15:52;;;;;;;10.17;4.30;;;4.30;99.90;;;;;;4917519;29;20250;-78
2021/04/02 01:18:41;;;;;;;11.97;4.53;;;4.30;99.90;;;;;;4916701;29;20239;-78
2021/04/02 01:21:29;;;;;;;16.50;4.40;;;4.30;99.90;;;;;;4917932;29;20716;-77
2021/04/02 01:24:29;;;;;;;12.03;3.73;;;4.20;99.90;;;;;;4914961;29;20617;-80
2021/04/02 01:27:27;;;;;;;12.67;4.30;;;4.20;99.90;;;;;;4907626;29;20211;-76
2021/04/02 01:30:16;;;;;;;14.00;4.37;;;4.20;99.90;;;;;;4913304;29;20220;-77
2021/04/02 01:33:02;;;;;;;13.93;4.40;;;4.20;99.90;;;;;;4917834;29;20291;-78
2021/04/02 01:35:48;;;;;;;15.83;3.97;;;4.10;99.90;;;;;;4909977;29;20204;-78
2021/04/02 01:38:37;;;;;;;15.27;4.63;;;4.10;99.90;;;;;;4916594;29;20349;-77
2021/04/02 01:41:24;;;;;;;14.37;4.60;;;4.10;99.90;;;;;;4917274;29;20295;-78
2021/04/02 01:44:10;;;;;;;12.50;4.60;;;4.00;99.90;;;;;;4916570;29;20250;-76
2021/04/02 01:46:57;;;;;;;14.23;3.90;;;4.00;99.90;;;;;;4916920;29;20239;-77
2021/04/02 01:49:44;;;;;;;12.73;4.77;;;4.00;99.90;;;;;;4917496;29;20230;-77
2021/04/02 01:52:29;;;;;;;7.93;3.40;;;4.00;99.90;;;;;;4911617;29;20979;-77
2021/04/02 01:55:16;;;;;;;13.50;5.00;;;3.90;99.90;;;;;;4906608;29;20199;-77
2021/04/02 01:58:01;;;;;;;13.00;4.37;;;3.90;99.90;;;;;;4917066;29;20256;-77
2021/04/02 02:00:49;;;;;;;11.60;3.93;;;3.90;99.90;;;;;;4916798;29;20261;-77
2021/04/02 02:03:36;;;;;;;12.57;3.30;;;3.90;99.90;;;;;;4916609;29;20203;-77
2021/04/02 02:06:23;;;;;;;11.30;3.30;;;3.90;99.90;;;;;;4913150;29;20223;-76
2021/04/02 02:09:11;;;;;;;14.07;4.10;;;3.80;99.90;;;;;;4916313;29;20320;-77
2021/04/02 02:12:00;;;;;;;14.03;4.07;;;3.80;99.90;;;;;;4916266;29;20211;-78
2021/04/02 02:14:49;;;;;;;12.30;3.37;;;3.80;99.90;;;;;;4910821;29;20255;-76
2021/04/02 02:17:34;;;;;;;10.63;3.80;;;3.80;99.90;;;;;;4916453;29;20733;-76
2021/04/02 02:20:21;;;;;;;11.03;3.50;;;3.80;99.90;;;;;;4916775;29;20211;-76
2021/04/02 02:23:07;;;;;;;11.10;3.50;;;3.80;99.90;;;;;;4917148;29;20212;-77
2021/04/02 02:25:51;;;;;;;15.33;3.73;;;3.70;99.90;;;;;;4904607;29;20218;-76
2021/04/02 02:28:37;;;;;;;12.37;3.07;;;3.70;99.90;;;;;;4910007;29;20608;-77
2021/04/02 02:31:22;;;;;;;8.90;3.03;;;3.70;99.90;;;;;;4916922;29;20215;-76
2021/04/02 02:34:08;;;;;;;9.23;3.37;;;3.70;99.90;;;;;;4916299;29;20279;-76
2021/04/02 02:36:55;;;;;;;11.67;3.50;;;3.70;99.90;;;;;;4915767;29;20701;-77
2021/04/02 02:39:40;;;;;;;15.60;4.03;;;3.60;99.90;;;;;;4915448;29;20235;-76
2021/04/02 02:42:25;;;;;;;10.73;2.90;;;3.60;99.90;;;;;;4916787;29;20234;-76
2021/04/02 02:45:12;;;;;;;10.40;3.23;;;3.60;99.90;;;;;;4916064;29;20230;-77
2021/04/02 02:47:57;;;;;;;7.40;3.53;;;3.60;99.90;;;;;;4916164;29;20200;-78
2021/04/02 02:50:47;;;;;;;7.97;3.20;;;3.60;99.90;;;;;;4912712;29;20212;-77
2021/04/02 02:53:33;;;;;;;15.80;3.37;;;3.60;99.90;;;;;;4916118;29;20225;-76
2021/04/02 02:56:20;;;;;;;7.97;3.23;;;3.50;99.90;;;;;;4915872;29;20265;-77
2021/04/02 02:59:08;;;;;;;9.67;3.20;;;3.50;99.90;;;;;;4915764;29;20293;-77
2021/04/02 03:01:55;;;;;;;12.87;3.50;;;3.50;99.90;;;;;;4905799;29;20232;-78
2021/04/02 03:04:41;;;;;;;8.33;3.10;;;3.50;99.90;;;;;;4925659;29;20251;-77
2021/04/02 03:07:28;;;;;;;8.50;3.20;;;3.50;99.90;;;;;;4905463;29;20681;-78
2021/04/02 03:10:17;;;;;;;7.97;2.90;;;3.50;99.90;;;;;;4905258;29;20230;-77
2021/04/02 03:13:03;;;;;;;7.87;3.30;;;3.50;99.90;;;;;;4916391;29;20266;-76
2021/04/02 03:15:48;;;;;;;12.43;3.47;;;3.50;99.90;;;;;;4916340;29;20682;-77
2021/04/02 03:18:34;;;;;;;10.93;2.90;;;3.50;99.90;;;;;;4914714;29;20229;-77
2021/04/02 03:21:20;;;;;;;9.57;3.27;;;3.50;99.90;;;;;;4916511;29;20207;-77
2021/04/02 03:24:08;;;;;;;10.50;3.33;;;3.50;99.90;;;;;;4905236;29;20204;-77
2021/04/02 03:26:55;;;;;;;9.57;2.80;;;3.50;99.90;;;;;;4916978;29;20231;-77
2021/04/02 03:29:41;;;;;;;9.77;3.30;;;3.50;99.90;;;;;;4915991;29;20272;-76
2021/04/02 03:32:28;;;;;;;9.60;3.10;;;3.50;99.90;;;;;;4904153;29;20276;-76
2021/04/02 03:35:14;;;;;;;10.17;3.00;;;3.50;99.90;;;;;;4915619;29;20257;-76
2021/04/02 03:38:00;;;;;;;7.50;3.30;;;3.50;99.90;;;;;;4935732;29;20278;-78
2021/04/02 03:40:47;;;;;;;12.43;3.20;;;3.50;99.90;;;;;;4931506;29;20193;-79
2021/04/02 03:43:34;;;;;;;7.50;3.40;;;3.50;99.90;;;;;;4939864;29;20184;-79
2021/04/02 03:46:21;;;;;;;10.17;3.30;;;3.60;99.90;;;;;;4933051;29;20765;-78
2021/04/02 03:49:10;;;;;;;18.40;3.97;;;3.60;99.90;;;;;;4920130;29;20272;-77
2021/04/02 03:52:00;;;;;;;8.27;3.47;;;3.60;99.90;;;;;;4915173;29;20296;-77
2021/04/02 03:54:49;;;;;;;10.93;3.67;;;3.70;99.90;;;;;;4903204;29;20264;-76
2021/04/02 03:57:39;;;;;;;14.57;3.67;;;3.70;99.90;;;;;;4914032;29;20210;-77
2021/04/02 04:00:29;;;;;;;11.80;4.10;;;3.70;99.90;;;;;;4915885;29;20211;-76
2021/04/02 04:03:17;;;;;;;11.63;4.23;;;3.80;99.90;;;;;;4917322;29;20214;-77
2021/04/02 04:06:03;;;;;;;10.60;4.40;;;3.80;99.90;;;;;;4918687;29;20242;-76
2021/04/02 04:08:52;;;;;;;11.30;4.20;;;3.80;99.90;;;;;;4914413;29;20842;-77
2021/04/02 04:11:39;;;;;;;8.77;4.03;;;3.90;99.90;;;;;;4914709;29;20219;-78
2021/04/02 04:14:26;;;;;;;12.70;5.53;;;3.90;99.90;;;;;;4915114;29;20716;-78
2021/04/02 04:17:13;;;;;;;17.87;4.63;;;3.90;99.90;;;;;;4904143;29;20244;-78
2021/04/02 04:20:00;;;;;;;13.90;5.63;;;4.00;99.90;;;;;;4914204;29;20286;-78
2021/04/02 04:22:48;;;;;;;14.67;6.40;;;4.00;99.90;;;;;;4915324;29;20205;-78
2021/04/02 04:25:33;;;;;;;20.70;6.67;;;4.10;99.90;;;;;;4903643;29;20243;-78
2021/04/02 04:28:21;;;;;;;18.73;6.33;;;4.10;99.90;;;;;;4912863;29;20227;-79
2021/04/02 04:31:08;;;;;;;17.97;6.73;;;4.20;99.90;;;;;;4906753;29;20220;-78
2021/04/02 04:33:56;;;;;;;17.80;6.50;;;4.30;99.90;;;;;;4914129;29;20294;-79
2021/04/02 04:36:44;;;;;;;18.63;5.80;;;4.30;99.90;;;;;;4914042;29;20276;-79
2021/04/02 04:39:29;;;;;;;15.80;6.40;;;4.30;99.90;;;;;;4912479;29;20227;-78
2021/04/02 04:42:17;;;;;;;16.40;5.97;;;4.40;99.90;;;;;;4918522;29;20246;-78
2021/04/02 04:45:03;;;;;;;15.90;6.67;;;4.40;99.90;;;;;;4916039;29;20282;-78
2021/04/02 04:47:48;;;;;;;16.27;6.47;;;4.40;99.90;;;;;;4915833;29;20250;-77
2021/04/02 04:50:35;;;;;;;12.90;5.30;;;4.40;99.90;;;;;;4917573;29;20626;-78
2021/04/02 04:53:25;;;;;;;15.97;5.47;;;4.50;99.90;;;;;;4917485;29;20230;-78
2021/04/02 04:56:12;;;;;;;14.60;6.47;;;4.40;99.90;;;;;;4910469;29;20323;-78
2021/04/02 04:59:01;;;;;;;13.80;5.93;;;4.40;99.90;;;;;;4915918;29;20267;-78
2021/04/02 05:01:48;;;;;;;16.13;6.07;;;4.40;99.90;;;;;;4911650;29;20203;-78
2021/04/02 05:04:33;;;;;;;17.93;5.67;;;4.40;99.90;;;;;;4911683;29;20251;-78
2021/04/02 05:07:20;;;;;;;13.23;6.07;;;4.40;99.90;;;;;;4917005;29;20827;-78
2021/04/02 05:10:06;;;;;;;15.27;6.30;;;4.40;99.90;;;;;;4915216;29;20238;-78
2021/04/02 05:12:52;;;;;;;13.87;4.53;;;4.40;99.90;;;;;;4916696;29;20231;-78
2021/04/02 05:15:37;;;;;;;13.87;5.30;;;4.40;99.90;;;;;;4916330;29;20207;-78
2021/04/02 05:18:23;;;;;;;14.80;4.93;;;4.40;99.90;;;;;;4916656;29;20243;-78
2021/04/02 05:21:08;;;;;;;9.10;4.57;;;4.40;99.90;;;;;;4909446;29;20207;-78
2021/04/02 05:23:54;;;;;;;11.40;5.30;;;4.30;99.90;;;;;;4916425;29;20219;-77
2021/04/02 05:26:40;;;;;;;12.97;4.90;;;4.30;99.90;;;;;;4911639;29;20219;-77
2021/04/02 05:29:25;;;;;;;15.53;4.80;;;4.30;99.90;;;;;;4916260;29;20786;-77
2021/04/02 05:32:09;;;;;;;11.27;4.80;;;4.20;99.90;;;;;;4913528;29;20267;-77
2021/04/02 05:34:54;;;;;;;14.43;5.60;;;4.20;99.90;;;;;;4914294;29;20258;-77
2021/04/02 05:37:39;;;;;;;14.47;4.27;;;4.20;99.90;;;;;;4909552;29;20200;-77
2021/04/02 05:40:24;;;;;;;14.87;5.30;;;4.20;99.90;;;;;;4914852;29;20344;-77
2021/04/02 05:43:13;;;;;;;17.73;5.23;;;4.10;99.90;;;;;;4913851;29;20269;-76
2021/04/02 05:46:00;;;;;;;10.13;4.87;;;4.10;99.90;;;;;;4913010;29;20221;-77
2021/04/02 05:48:45;;;;;;;16.60;4.50;;;4.10;99.90;;;;;;4915645;29;20917;-78
2021/04/02 05:51:31;;;;;;;16.43;5.47;;;4.00;99.90;;;;;;4915753;29;20211;-77
2021/04/02 05:54:23;;;;;;;13.83;5.27;;;4.10;99.90;;;;;;4910592;29;20206;-77
2021/04/02 05:57:09;;;;;;;12.20;4.40;;;4.00;99.90;;;;;;4915342;29;20298;-76
2021/04/02 05:59:55;;;;;;;14.30;5.53;;;4.00;99.90;;;;;;4914238;29;20639;-76
2021/04/02 06:02:41;;;;;;;12.57;4.73;;;4.00;99.90;;;;;;4914950;29;20221;-77
2021/04/02 06:05:26;;;;;;;16.87;6.30;;;4.00;99.90;;;;;;4914550;29;20223;-76
2021/04/02 06:08:12;;;;;;;13.57;5.27;;;4.00;99.90;;;;;;4901131;29;20284;-76
2021/04/02 06:10:57;;;;;;;10.00;4.93;;;4.00;99.90;;;;;;4909086;29;20226;-77
2021/04/02 06:13:43;;;;;;;8.37;4.20;;;4.00;99.90;;;;;;4914176;29;20627;-76
2021/04/02 06:16:27;;;;;;;16.47;5.70;;;4.00;99.90;;;;;;4914618;29;20212;-76
2021/04/02 06:19:12;;;;;;;20.20;4.80;;;4.00;99.90;;;;;;4913675;29;20336;-77
2021/04/02 06:21:58;;;;;;;13.37;5.03;;;4.00;99.90;;;;;;4915507;29;20215;-77
2021/04/02 06:24:46;;;;;;;18.57;5.83;;;4.00;99.90;;;;;;4915892;29;20760;-76
2021/04/02 06:27:31;;;;;;;15.23;5.73;;;4.00;99.90;;;;;;4897676;29;20595;-77
2021/04/02 06:30:19;;;;;;;12.90;4.90;;;4.00;99.90;;;;;;4915062;29;20222;-75
2021/04/02 06:33:06;;;;;;;16.27;4.57;;;4.00;99.90;;;;;;4916802;29;20199;-77
2021/04/02 06:35:50;;;;;;;15.57;4.83;;;4.10;99.90;;;;;;4907809;29;20249;-76
2021/04/02 06:38:41;;;;;;;16.87;5.17;;;4.10;99.90;;;;;;4919178;29;20307;-76
2021/04/02 06:41:28;;;;;;;16.10;5.37;;;4.10;99.90;;;;;;4919762;29;20241;-77
2021/04/02 06:44:13;;;;;;;23.47;5.17;;;4.10;99.90;;;;;;4907389;29;20631;-75
2021/04/02 06:46:59;;;;;;;13.83;4.83;;;4.20;99.90;;;;;;4913587;29;20256;-77
2021/04/02 06:49:51;;;;;;;15.63;4.90;;;4.20;99.90;;;;;;4916209;29;20228;-76
2021/04/02 06:52:36;;;;;;;20.33;5.57;;;4.20;99.90;;;;;;4913020;29;20213;-77
2021/04/02 06:55:21;;;;;;;11.10;5.07;;;4.30;99.90;;;;;;4913508;29;20205;-76
2021/04/02 06:58:09;;;;;;;15.17;4.40;;;4.30;99.90;;;;;;4897369;29;20278;-77
2021/04/02 07:01:00;;;;;;;10.80;4.07;;;4.30;99.90;;;;;;4897441;29;20322;-77
2021/04/02 07:03:46;;;;;;;12.20;3.93;;;4.40;99.90;;;;;;4914646;29;20199;-76
2021/04/02 07:06:32;;;;;;;15.40;4.70;;;4.40;99.90;;;;;;4912844;29;20711;-76
2021/04/02 07:09:20;;;;;;;11.00;4.13;;;4.50;99.90;;;;;;4910010;29;20262;-78
2021/04/02 07:12:07;;;;;;;13.23;3.87;;;4.50;99.90;;;;;;4903722;29;20221;-76
2021/04/02 07:14:54;;;;;;;12.47;3.73;;;4.60;99.90;;;;;;4916115;29;20589;-77
2021/04/02 07:17:39;;;;;;;15.80;4.27;;;4.60;99.90;;;;;;4916155;29;20297;-77
2021/04/02 07:20:25;;;;;;;17.03;3.73;;;4.60;99.90;;;;;;4915551;29;20243;-77
2021/04/02 07:23:10;;;;;;;8.70;3.43;;;4.70;99.90;;;;;;4915350;29;20249;-76
2021/04/02 07:25:56;;;;;;;12.87;3.63;;;4.80;99.90;;;;;;4915945;29;20274;-77
2021/04/02 07:28:44;;;;;;;12.73;4.00;;;4.80;99.90;;;;;;4912568;29;20992;-77
2021/04/02 07:31:30;;;;;;;10.90;2.97;;;4.90;99.90;;;;;;4899536;29;20218;-78
2021/04/02 07:34:16;;;;;;;11.00;3.40;;;5.00;99.90;;;;;;4899050;29;20492;-76
2021/04/02 07:37:03;;;;;;;13.03;3.20;;;5.10;99.90;;;;;;4911140;29;20215;-78
2021/04/02 07:39:48;;;;;;;10.43;3.00;;;5.20;99.90;;;;;;4914274;29;20239;-77
2021/04/02 07:42:33;;;;;;;11.70;2.60;;;5.40;99.90;;;;;;4916693;29;20215;-78
2021/04/02 07:45:21;;;;;;;13.40;2.60;;;5.50;99.90;;;;;;4913625;29;20255;-77
2021/04/02 07:48:14;;;;;;;10.40;2.70;;;5.70;99.90;;;;;;4911110;29;20272;-77
2021/04/02 07:51:03;;;;;;;10.03;2.43;;;5.80;99.90;;;;;;4905939;29;20251;-77
2021/04/02 07:53:49;;;;;;;12.87;3.40;;;5.90;99.90;;;;;;4912305;29;20204;-76
2021/04/02 07:56:34;;;;;;;11.27;2.70;;;6.00;99.90;;;;;;4913131;29;20260;-77
2021/04/02 07:59:19;;;;;;;14.30;3.07;;;6.20;99.90;;;;;;4912553;29;20287;-78
2021/04/02 08:02:09;;;;;;;15.13;2.70;;;6.30;99.90;;;;;;4913121;29;20223;-77
2021/04/02 08:04:56;;;;;;;15.90;3.03;;;6.50;99.90;;;;;;4914382;29;20211;-77
2021/04/02 08:07:43;;;;;;;12.53;1.83;;;6.70;99.90;;;;;;4912613;29;20239;-78
2021/04/02 08:10:30;;;;;;;10.20;2.00;;;6.90;99.90;;;;;;4914781;29;20230;-78
2021/04/02 08:13:19;;;;;;;11.17;2.70;;;7.10;99.90;;;;;;4904758;29;20219;-77
2021/04/02 08:16:38;;;;;;;10.63;2.83;;;7.40;99.90;;;;;;4906860;29;20252;-78
2021/04/02 08:19:28;;;;;;;11.93;2.90;;;7.70;99.90;;;;;;4920624;29;20333;-76
2021/04/02 08:22:16;;;;;;;6.87;2.10;;;7.90;99.90;;;;;;4908652;29;20215;-76
2021/04/02 08:25:05;;;;;;;12.60;2.30;;;8.20;99.90;;;;;;4910296;29;20259;-77
2021/04/02 08:27:51;;;;;;;5.13;1.90;;;8.50;99.90;;;;;;4905922;29;20749;-77
2021/04/02 08:30:36;;;;;;;12.77;1.90;;;8.70;99.90;;;;;;4909186;29;20211;-76
2021/04/02 08:33:23;;;;;;;6.63;2.17;;;8.80;99.90;;;;;;4907848;29;20207;-76
2021/04/02 08:36:08;;;;;;;12.57;2.50;;;9.00;99.90;;;;;;4914096;29;20207;-76
2021/04/02 08:38:54;;;;;;;10.37;2.13;;;9.10;99.90;;;;;;4910694;29;20236;-76
2021/04/02 08:41:39;;;;;;;12.73;2.40;;;9.20;99.90;;;;;;4907082;29;20300;-75
2021/04/02 08:44:30;;;;;;;7.63;2.00;;;9.30;99.90;;;;;;4908764;29;20211;-77
2021/04/02 08:47:16;;;;;;;9.27;2.37;;;9.30;99.90;;;;;;4913817;29;20604;-76
2021/04/02 08:50:01;;;;;;;9.50;2.80;;;9.40;99.90;;;;;;4913171;29;20231;-76
2021/04/02 08:52:45;;;;;;;9.77;2.33;;;9.50;99.90;;;;;;4908541;29;20331;-76
2021/04/02 08:55:30;;;;;;;9.83;2.43;;;9.70;99.90;;;;;;4913753;29;20227;-76
2021/04/02 08:58:15;;;;;;;10.40;2.23;;;9.90;99.90;;;;;;4912821;29;20238;-77
2021/04/02 09:01:01;;;;;;;11.03;2.40;;;10.20;99.90;;;;;;4908978;29;20248;-76
2021/04/02 09:03:46;;;;;;;8.27;2.53;;;10.40;99.90;;;;;;4913290;29;20262;-77
2021/04/02 09:06:31;;;;;;;5.60;2.30;;;10.60;99.90;;;;;;4913962;29;20264;-77
2021/04/02 09:09:21;;;;;;;7.93;2.40;;;10.80;99.90;;;;;;4914243;29;20279;-76
2021/04/02 09:12:09;;;;;;;8.87;1.90;;;10.90;99.90;;;;;;4914673;29;20263;-76
2021/04/02 09:14:54;;;;;;;6.60;1.97;;;11.10;99.90;;;;;;4914061;29;20272;-78
2021/04/02 09:17:40;;;;;;;7.30;1.60;;;11.20;99.90;;;;;;4913106;29;20211;-77
2021/04/02 09:20:25;;;;;;;7.83;2.40;;;11.30;99.90;;;;;;4906826;29;20587;-77
2021/04/02 09:23:10;;;;;;;10.47;2.57;;;11.40;99.90;;;;;;4915116;29;20215;-78
2021/04/02 09:25:55;;;;;;;5.07;2.20;;;11.50;99.90;;;;;;4917074;29;20223;-77
2021/04/02 09:28:41;;;;;;;5.93;2.20;;;11.70;99.90;;;;;;4916211;29;20236;-77
2021/04/02 09:31:27;;;;;;;12.30;2.53;;;12.10;99.90;;;;;;4907074;29;20725;-78
2021/04/02 09:34:18;;;;;;;9.90;2.00;;;12.50;99.90;;;;;;4916759;29;20281;-77
2021/04/02 09:37:04;;;;;;;4.27;1.60;;;12.80;99.90;;;;;;4911301;29;20318;-77
2021/04/02 09:39:49;;;;;;;9.07;2.53;;;13.10;99.90;;;;;;4916753;29;20298;-76
2021/04/02 09:42:35;;;;;;;4.53;1.67;;;13.20;99.90;;;;;;4916385;29;20336;-78
2021/04/02 09:45:20;;;;;;;5.10;1.73;;;13.40;99.90;;;;;;4911173;29;20289;-77
2021/04/02 09:48:19;;;;;;;6.43;1.97;;;13.50;99.90;;;;;;4899898;29;20298;-77
2021/04/02 09:51:06;;;;;;;8.23;1.97;;;13.60;99.90;;;;;;4906630;29;20219;-77
2021/04/02 09:53:51;;;;;;;8.07;2.30;;;13.70;99.90;;;;;;4917075;29;20221;-77
2021/04/02 09:56:36;;;;;;;6.00;2.10;;;13.70;99.90;;;;;;4904176;29;20222;-76
2021/04/02 09:59:22;;;;;;;10.73;1.83;;;13.80;99.90;;;;;;4907370;29;20275;-77
2021/04/02 10:02:07;;;;;;;7.97;2.20;;;14.10;99.90;;;;;;4912529;29;20230;-77
2021/04/02 10:04:52;;;;;;;7.77;1.90;;;14.00;99.90;;;;;;4914085;29;20210;-78
2021/04/02 10:07:38;;;;;;;6.97;2.20;;;14.00;99.90;;;;;;4906612;29;20223;-77
2021/04/02 10:10:23;;;;;;;5.93;2.10;;;14.10;99.90;;;;;;4908235;29;20221;-78
2021/04/02 10:13:07;;;;;;;6.67;2.27;;;14.20;99.90;;;;;;4909449;29;20684;-78
2021/04/02 10:15:52;;;;;;;4.20;2.30;;;14.30;99.90;;;;;;4910229;29;20228;-77
2021/04/02 10:18:39;;;;;;;7.87;2.30;;;14.40;99.90;;;;;;4910476;29;20375;-77
2021/04/02 10:21:25;;;;;;;5.73;2.60;;;14.50;99.90;;;;;;4907471;29;20249;-78
2021/04/02 10:24:11;;;;;;;4.77;2.50;;;14.60;99.90;;;;;;4912842;29;20226;-77
2021/04/02 10:26:58;;;;;;;7.47;2.90;;;14.60;99.50;;;;;;4912071;29;20303;-76
2021/04/02 10:29:43;;;;;;;7.83;3.13;;;14.60;99.30;;;;;;4915743;29;20239;-77
2021/04/02 10:32:27;;;;;;;6.43;2.80;;;14.70;97.90;;;;;;4916729;29;20703;-77
2021/04/02 10:35:13;;;;;;;8.53;3.37;;;14.70;97.80;;;;;;4912705;29;20627;-77
2021/04/02 10:37:58;;;;;;;4.67;2.30;;;14.70;99.50;;;;;;4911160;29;20813;-77
2021/04/02 10:40:45;;;;;;;5.00;2.40;;;14.80;99.80;;;;;;4904517;29;20267;-78
2021/04/02 10:43:30;;;;;;;7.50;2.80;;;14.90;98.80;;;;;;4910792;29;20805;-77
2021/04/02 10:46:15;;;;;;;8.63;2.80;;;15.00;98.60;;;;;;4914199;29;20293;-77
2021/04/02 10:49:00;;;;;;;5.93;2.20;;;14.90;97.40;;;;;;4916748;29;20239;-77
2021/04/02 10:51:45;;;;;;;8.27;2.43;;;15.10;96.60;;;;;;4903588;29;20211;-77
2021/04/02 10:54:29;;;;;;;4.90;2.50;;;15.10;96.80;;;;;;4903844;29;20269;-77
2021/04/02 10:57:15;;;;;;;7.77;2.27;;;15.20;95.90;;;;;;4917680;29;20752;-77
2021/04/02 11:00:00;;;;;;;7.63;2.30;;;15.30;96.80;;;;;;4917538;29;20780;-78
2021/04/02 11:02:45;;;;;;;11.77;2.97;;;15.50;97.60;;;;;;4915968;29;20583;-79
2021/04/02 11:05:30;;;;;;;9.17;2.87;;;15.60;93.60;;;;;;4905834;29;20264;-80
2021/04/02 11:08:15;;;;;;;7.20;2.43;;;15.90;95.30;;;;;;4917078;29;20246;-78
2021/04/02 11:11:00;;;;;;;7.07;2.30;;;16.10;93.90;;;;;;4918120;29;20266;-81
2021/04/02 11:13:46;;;;;;;7.87;2.30;;;16.40;92.50;;;;;;4937268;29;20205;-78
2021/04/02 11:16:30;;;;;;;6.13;2.30;;;16.70;92.50;;;;;;4936810;29;20259;-80
2021/04/02 11:19:15;;;;;;;12.60;2.63;;;16.80;92.20;;;;;;4920539;29;20253;-78
2021/04/02 11:22:00;;;;;;;8.97;2.70;;;17.10;92.00;;;;;;4929004;29;20446;-80
2021/04/02 11:24:45;;;;;;;8.50;2.27;;;17.20;91.30;;;;;;4904020;29;20264;-79
2021/04/02 11:27:30;;;;;;;7.90;2.37;;;17.40;90.40;;;;;;4905257;29;20352;-78
2021/04/02 11:30:18;;;;;;;8.13;2.47;;;17.50;90.20;;;;;;4918766;29;20290;-80
2021/04/02 11:33:03;;;;;;;6.00;2.23;;;17.60;88.20;;;;;;4909059;29;20272;-78
2021/04/02 11:35:48;;;;;;;9.30;2.27;;;17.60;87.20;;;;;;4913186;29;20260;-79
2021/04/02 11:38:34;;;;;;;10.40;2.63;;;17.60;90.60;;;;;;4918514;29;20286;-79
2021/04/02 11:41:19;;;;;;;9.33;2.17;;;17.90;89.70;;;;;;4906283;29;20210;-79
2021/04/02 11:44:04;;;;;;;5.60;1.87;;;18.40;84.00;;;;;;4916239;29;20581;-78
2021/04/02 11:46:51;;;;;;;8.67;2.00;;;19.00;81.30;;;;;;4916905;29;20229;-79
2021/04/02 11:49:38;;;;;;;7.00;1.93;;;19.30;81.50;;;;;;4917997;29;20334;-80
2021/04/02 11:52:23;;;;;;;6.27;2.10;;;19.40;79.70;;;;;;4911749;29;20711;-79
2021/04/02 11:55:09;;;;;;;5.63;1.90;;;19.70;76.50;;;;;;4916475;29;20702;-78
2021/04/02 11:57:54;;;;;;;6.67;1.87;;;19.90;77.80;;;;;;4917166;29;20197;-79
2021/04/02 12:00:39;;;;;;;8.27;2.13;;;19.90;79.00;;;;;;4917425;29;20212;-79
2021/04/02 12:03:24;;;;;;;7.57;2.23;;;20.30;78.00;;;;;;4908154;29;20208;-80
2021/04/02 12:06:09;;;;;;;4.20;2.03;;;20.50;77.20;;;;;;4916876;29;20222;-78
2021/04/02 12:08:54;;;;;;;7.33;2.50;;;20.80;72.60;;;;;;4916643;29;20242;-79
2021/04/02 12:11:39;;;;;;;7.30;2.07;;;21.00;73.10;;;;;;4914769;29;20270;-78
2021/04/02 12:14:25;;;;;;;7.03;2.17;;;21.00;71.70;;;;;;4911363;29;20589;-78
2021/04/02 12:17:10;;;;;;;8.30;2.57;;;21.20;70.20;;;;;;4917433;29;20209;-80
2021/04/02 12:19:55;;;;;;;7.80;2.40;;;21.40;67.80;;;;;;4918595;29;20237;-79
2021/04/02 12:22:40;;;;;;;5.97;2.13;;;21.50;67.90;;;;;;4916472;29;20204;-79
2021/04/02 12:25:25;;;;;;;7.97;2.40;;;21.40;72.20;;;;;;4915272;29;20265;-80
2021/04/02 12:28:10;;;;;;;8.13;2.53;;;21.50;67.50;;;;;;4913286;29;20238;-79
2021/04/02 12:30:54;;;;;;;5.03;1.87;;;21.60;66.00;;;;;;4915481;29;20250;-79
2021/04/02 12:33:39;;;;;;;5.77;1.93;;;21.80;64.80;;;;;;4912702;29;20299;-79
2021/04/02 12:36:25;;;;;;;9.77;2.80;;;21.90;66.00;;;;;;4909034;29;20235;-79
2021/04/02 12:39:10;;;;;;;5.17;2.00;;;21.70;64.30;;;;;;4914072;29;20379;-79
2021/04/02 12:41:55;;;;;;;5.63;2.40;;;21.80;65.60;;;;;;4914829;29;20688;-78
2021/04/02 12:44:40;;;;;;;8.70;2.23;;;21.70;65.80;;;;;;4908673;29;20294;-79
2021/04/02 12:47:25;;;;;;;8.53;2.03;;;21.60;64.80;;;;;;4914349;29;20302;-80
2021/04/02 12:50:13;;;;;;;9.00;2.37;;;21.50;66.90;;;;;;4914350;29;20234;-78
2021/04/02 12:52:59;;;;;;;9.07;2.20;;;21.40;66.10;;;;;;4912440;29;20230;-79
2021/04/02 12:55:44;;;;;;;8.00;2.30;;;21.20;65.80;;;;;;4914168;29;20217;-79
2021/04/02 12:58:29;;;;;;;6.90;1.87;;;21.20;64.10;;;;;;4913099;29;20224;-79
2021/04/02 13:01:14;;;;;;;5.33;1.80;;;20.90;65.20;;;;;;4920327;29;20319;-80
2021/04/02 13:03:59;;;;;;;6.40;1.80;;;20.70;65.70;;;;;;4919798;29;20254;-79
2021/04/02 13:06:43;;;;;;;5.43;1.87;;;20.50;67.50;;;;;;4910694;29;20226;-79
2021/04/02 13:09:29;;;;;;;4.60;1.80;;;20.30;67.30;;;;;;4913667;29;20237;-79
2021/04/02 13:12:14;;;;;;;5.37;1.90;;;20.10;67.00;;;;;;4914544;29;20218;-79
2021/04/02 13:14:58;;;;;;;9.17;2.40;;;19.90;67.60;;;;;;4918429;29;20208;-79
2021/04/02 13:17:45;;;;;;;7.37;2.63;;;19.80;67.60;;;;;;4918954;29;20220;-79
2021/04/02 13:20:33;;;;;;;10.07;2.47;;;19.60;67.80;;;;;;4916174;29;20219;-78
2021/04/02 13:23:18;;;;;;;7.00;2.17;;;19.40;69.30;;;;;;4929624;29;20211;-78
2021/04/02 13:26:03;;;;;;;9.10;2.27;;;19.10;68.40;;;;;;4918242;29;20220;-78
2021/04/02 13:28:48;;;;;;;4.43;1.80;;;18.90;69.80;;;;;;4912010;29;20844;-79
2021/04/02 13:31:33;;;;;;;8.03;2.20;;;18.70;70.90;;;;;;4914499;29;20213;-79
2021/04/02 13:34:19;;;;;;;6.57;2.43;;;18.40;70.90;;;;;;4919278;29;20248;-77
2021/04/02 13:37:05;;;;;;;7.67;2.40;;;18.20;69.70;;;;;;4919169;29;20234;-79
2021/04/02 13:39:50;;;;;;;7.80;2.23;;;18.00;71.30;;;;;;4917667;29;20241;-78
2021/04/02 13:42:36;;;;;;;6.47;2.40;;;17.80;72.20;;;;;;4919034;29;20217;-78
2021/04/02 13:45:21;;;;;;;8.20;2.37;;;17.60;72.70;;;;;;4911101;29;20299;-79
2021/04/02 13:48:07;;;;;;;9.67;2.07;;;17.40;72.90;;;;;;4916091;29;20612;-78
2021/04/02 13:50:52;;;;;;;8.23;1.93;;;17.20;73.40;;;;;;4918248;29;20228;-78
2021/04/02 13:53:39;;;;;;;4.97;1.60;;;17.00;73.60;;;;;;4916062;29;20693;-77
2021/04/02 13:56:24;;;;;;;8.50;2.33;;;16.80;75.10;;;;;;4918527;29;20259;-79
2021/04/02 13:59:10;;;;;;;9.33;1.80;;;16.70;75.80;;;;;;4919019;29;20264;-79
2021/04/02 14:01:54;;;;;;;6.90;2.30;;;16.50;77.00;;;;;;4911085;29;20708;-79
2021/04/02 14:04:39;;;;;;;9.27;2.03;;;16.30;77.40;;;;;;4909745;29;20247;-78
2021/04/02 14:07:24;;;;;;;9.50;2.70;;;16.20;76.70;;;;;;4907572;29;20224;-78
2021/04/02 14:10:11;;;;;;;8.60;2.30;;;16.00;77.70;;;;;;4904453;29;20243;-78
2021/04/02 14:12:56;;;;;;;5.97;2.07;;;15.80;77.90;;;;;;4911326;29;20539;-78
2021/04/02 14:15:42;;;;;;;9.77;2.40;;;15.70;78.30;;;;;;4919086;29;20649;-79
2021/04/02 14:18:27;;;;;;;10.53;3.07;;;15.50;79.40;;;;;;4918408;29;20315;-78
2021/04/02 14:21:12;;;;;;;9.23;2.30;;;15.40;80.20;;;;;;4917949;29;20707;-79
2021/04/02 14:23:57;;;;;;;5.93;1.90;;;15.20;79.50;;;;;;4918400;29;20215;-79
2021/04/02 14:26:42;;;;;;;8.07;2.47;;;15.10;79.40;;;;;;4918265;29;20230;-78